createdAt,value
2023-02-09T00:03:17.962Z,44.92
2023-02-09T00:11:18.524Z,44.90
2023-02-09T01:43:25.187Z,30.55
2023-02-09T01:44:25.245Z,27.21
2023-02-09T01:45:25.312Z,27.09
2023-02-09T01:46:25.473Z,27.58
2023-02-09T01:47:25.445Z,29.39
2023-02-09T01:48:25.498Z,30.40
2023-02-09T01:49:25.545Z,28.17
2023-02-09T01:50:25.610Z,30.80
2023-02-09T01:51:25.651Z,27.54
2023-02-09T01:52:25.719Z,28.65
2023-02-09T01:53:25.786Z,26.03
2023-02-09T01:54:25.876Z,28.76
2023-02-09T01:55:25.940Z,27.85
2023-02-09T01:56:25.989Z,28.27
2023-02-09T01:57:26.073Z,28.67
2023-02-09T01:58:26.139Z,29.34
2023-02-09T01:59:26.210Z,25.62
2023-02-09T02:00:26.281Z,29.01
2023-02-09T02:01:27.310Z,30.19
2023-02-09T02:02:26.449Z,27.38
2023-02-09T04:36:35.192Z,26.55
2023-02-09T04:37:35.221Z,28.27
2023-02-09T04:38:35.247Z,27.84
2023-02-09T04:39:35.310Z,29.92
2023-02-09T04:40:35.363Z,26.09
2023-02-09T04:41:35.416Z,29.84
2023-02-09T04:42:35.473Z,28.11
2023-02-09T04:43:35.547Z,29.18
2023-02-09T04:44:35.597Z,29.22
2023-02-09T04:45:35.674Z,26.69
2023-02-09T04:46:36.381Z,30.13
2023-02-09T04:47:35.782Z,28.54
2023-02-09T04:48:35.926Z,26.37
2023-02-09T04:49:35.895Z,32.13
2023-02-09T04:50:35.958Z,30.28
2023-02-09T04:51:36.011Z,30.31
2023-02-09T04:52:36.146Z,28.22
2023-02-09T04:53:36.111Z,27.19
2023-02-09T04:54:36.178Z,28.31
2023-02-09T04:55:36.239Z,27.38
2023-02-09T04:56:38.177Z,28.12
2023-02-09T04:57:36.352Z,29.11
2023-02-09T04:58:36.409Z,26.83
2023-02-09T04:59:36.530Z,29.21
2023-02-09T05:00:36.606Z,28.71
2023-02-09T05:01:36.635Z,28.98
2023-02-09T05:02:36.647Z,25.53
2023-02-09T05:03:36.819Z,28.89
2023-02-09T05:04:36.768Z,27.95
2023-02-09T05:05:36.820Z,29.31
2023-02-09T05:06:36.881Z,30.62
2023-02-09T05:07:36.945Z,29.60
2023-02-09T05:08:36.999Z,26.63
2023-02-09T05:09:37.037Z,26.52
2023-02-09T05:10:37.145Z,29.41
2023-02-09T05:11:37.174Z,27.77
2023-02-09T05:12:37.219Z,26.42
2023-02-09T05:13:37.338Z,26.90
2023-02-09T05:14:37.344Z,27.77
2023-02-09T05:15:37.393Z,28.68
2023-02-09T05:16:39.211Z,29.06
2023-02-09T05:17:37.511Z,28.23
2023-02-09T05:18:37.579Z,27.83
2023-02-09T05:19:37.641Z,29.12
2023-02-09T05:20:37.714Z,28.67
2023-02-09T05:21:37.770Z,28.10
2023-02-09T05:22:37.825Z,26.25
2023-02-09T05:23:37.892Z,28.73
2023-02-09T05:24:37.946Z,27.13
2023-02-09T05:25:38.008Z,26.72
2023-02-09T05:26:38.064Z,26.26
2023-02-09T07:30:45.460Z,56.28
2023-02-09T07:31:45.307Z,57.82
2023-02-09T07:32:45.209Z,56.19
2023-02-09T07:33:45.265Z,53.62
2023-02-09T07:34:45.369Z,60.07
2023-02-09T07:35:45.331Z,57.09
2023-02-09T07:36:47.624Z,57.21
2023-02-09T07:37:45.474Z,65.80
2023-02-09T07:38:45.518Z,62.47
2023-02-09T07:39:45.565Z,66.72
2023-02-09T07:40:46.113Z,66.22
2023-02-09T07:41:45.642Z,69.78
2023-02-09T07:42:45.697Z,72.22
2023-02-09T07:43:45.712Z,73.92
2023-02-09T07:44:45.773Z,77.59
2023-02-09T07:45:46.106Z,79.57
2023-02-09T07:47:45.761Z,80.51
2023-02-09T07:48:45.768Z,81.31
2023-02-09T07:49:45.757Z,84.15
2023-02-09T07:51:45.757Z,90.43
2023-02-09T07:52:45.736Z,95.90
2023-02-09T07:54:45.908Z,97.94
2023-02-09T07:55:46.279Z,98.69
2023-02-09T07:56:46.001Z,100.60
2023-02-09T07:57:46.057Z,104.95
2023-02-09T07:58:46.111Z,109.49
2023-02-09T07:59:46.110Z,113.92
2023-02-09T08:00:46.087Z,115.51
2023-02-09T08:01:46.138Z,115.30
2023-02-09T08:02:46.113Z,118.93
2023-02-09T08:03:46.130Z,121.36
2023-02-09T08:04:46.239Z,124.06
2023-02-09T08:05:46.561Z,126.69
2023-02-09T08:13:46.533Z,140.45
2023-02-09T08:44:47.704Z,108.99
2023-02-09T08:46:47.928Z,110.98
2023-02-09T08:47:47.811Z,115.54
2023-02-09T08:48:47.838Z,119.22
2023-02-09T08:49:47.835Z,120.55
2023-02-09T08:50:47.853Z,126.82
2023-02-09T08:51:47.858Z,126.35
2023-02-09T08:52:47.867Z,131.64
2023-02-09T08:53:47.880Z,135.77
2023-02-09T08:54:47.882Z,137.74
2023-02-09T08:55:48.434Z,135.96
2023-02-09T08:56:47.891Z,139.86
2023-02-09T08:57:47.900Z,144.38
2023-02-09T08:58:47.919Z,147.60
2023-02-09T08:59:47.945Z,150.68
2023-02-09T09:00:48.043Z,149.86
2023-02-09T09:01:47.988Z,152.07
2023-02-09T09:02:47.965Z,157.45
2023-02-09T09:03:48.083Z,158.04
2023-02-09T09:04:48.000Z,164.05
2023-02-09T09:05:49.276Z,166.24
2023-02-09T09:06:48.109Z,166.77
2023-02-09T09:07:48.206Z,168.91
2023-02-09T09:08:48.273Z,172.34
2023-02-09T09:09:49.193Z,172.60
2023-02-09T09:10:48.227Z,173.59
2023-02-09T09:11:48.169Z,176.26
2023-02-09T09:12:48.183Z,181.83
2023-02-09T09:14:48.216Z,205.05
2023-02-09T09:15:48.543Z,204.64
2023-02-09T09:16:48.218Z,211.40
2023-02-09T09:17:48.276Z,213.20
2023-02-09T09:18:48.296Z,214.05
2023-02-09T09:19:48.339Z,217.81
2023-02-09T09:20:48.928Z,221.62
2023-02-09T09:21:48.465Z,224.43
2023-02-09T09:22:48.543Z,226.35
2023-02-09T09:23:48.597Z,229.42
2023-02-09T09:24:48.633Z,213.45
2023-02-09T09:26:48.692Z,146.32
2023-02-09T09:28:48.726Z,119.20
2023-02-09T09:29:48.758Z,109.75
2023-02-09T09:30:48.828Z,98.17
2023-02-09T09:31:48.845Z,89.21
2023-02-09T09:32:50.024Z,74.77
2023-02-09T09:33:48.987Z,66.51
2023-02-09T09:34:49.028Z,64.25
2023-02-09T09:35:49.072Z,60.04
2023-02-09T09:36:49.062Z,51.13
2023-02-09T09:37:49.157Z,44.88
2023-02-09T09:38:49.127Z,41.36
2023-02-09T09:39:49.172Z,46.20
2023-02-09T09:40:49.210Z,27.73
2023-02-09T09:44:49.289Z,40.71
2023-02-09T09:45:50.140Z,45.63
2023-02-09T09:46:49.306Z,49.11
2023-02-09T09:47:49.371Z,53.08
2023-02-09T09:48:50.904Z,58.51
2023-02-09T09:49:49.329Z,74.32
2023-02-09T09:50:49.322Z,76.91
2023-02-09T09:51:49.330Z,99.29
2023-02-09T09:52:49.324Z,305.92
2023-02-09T09:53:49.343Z,224.00
2023-02-09T09:54:49.321Z,226.81
2023-02-09T09:55:49.561Z,206.25
2023-02-09T09:56:49.441Z,191.62
2023-02-09T09:57:49.429Z,177.02
2023-02-09T09:58:49.405Z,166.20
2023-02-09T09:59:49.477Z,158.25
2023-02-09T10:01:49.594Z,153.19
2023-02-09T10:02:49.629Z,152.01
2023-02-09T10:03:49.753Z,153.23
2023-02-09T10:04:49.786Z,150.66
2023-02-09T10:07:49.848Z,157.38
2023-02-09T11:22:52.961Z,193.51
2023-02-09T15:22:06.597Z,130.58
2023-02-09T15:22:55.700Z,130.80
2023-02-09T15:58:55.189Z,121.89
2023-02-09T15:59:55.264Z,122.05
2023-02-09T16:00:55.357Z,122.07
2023-02-09T16:01:57.165Z,122.99
2023-02-09T16:02:55.497Z,122.81
2023-02-09T16:04:00.440Z,120.86
2023-02-09T16:04:56.424Z,121.15
2023-02-09T16:05:55.439Z,121.23
2023-02-09T16:06:55.441Z,121.09
2023-02-09T16:07:55.439Z,118.54
2023-02-09T16:08:55.431Z,122.81
2023-02-09T16:09:55.562Z,119.30
2023-02-09T16:10:55.480Z,119.87
2023-02-09T16:11:55.449Z,115.91
2023-02-09T16:12:55.451Z,120.88
2023-02-09T16:13:56.053Z,117.64
2023-02-09T16:14:55.467Z,120.30
2023-02-09T16:16:00.292Z,119.26
2023-02-09T16:16:56.495Z,119.33
2023-02-09T16:17:55.453Z,119.68
2023-02-09T16:18:55.469Z,118.93
2023-02-09T16:19:55.468Z,119.41
2023-02-09T16:20:55.468Z,120.44
2023-02-09T16:21:55.474Z,116.40
2023-02-09T16:22:55.476Z,113.01
2023-02-09T16:23:55.474Z,120.55
2023-02-09T16:24:55.477Z,119.58
2023-02-09T16:25:55.501Z,113.42
2023-02-09T16:26:55.485Z,114.40
2023-02-09T16:27:55.511Z,108.67
2023-02-09T16:28:55.526Z,115.30
2023-02-09T16:29:55.571Z,113.66
2023-02-09T16:30:55.508Z,114.30
2023-02-09T16:31:55.564Z,115.79
2023-02-09T16:32:55.529Z,115.13
2023-02-09T16:33:55.595Z,115.53
2023-02-09T16:35:04.562Z,112.28
2023-02-09T16:35:56.571Z,112.47
2023-02-09T16:36:55.577Z,112.88
2023-02-09T16:37:55.538Z,113.51
2023-02-09T16:38:55.574Z,112.97
2023-02-09T16:39:55.777Z,116.52
2023-02-09T16:40:55.557Z,115.83
2023-02-09T16:41:55.570Z,112.60
2023-02-09T16:42:55.568Z,114.41
2023-02-09T16:43:55.613Z,113.03
2023-02-09T16:44:56.086Z,114.80
2023-02-09T16:46:03.438Z,112.38
2023-02-09T16:46:56.625Z,112.54
2023-02-09T16:47:59.023Z,113.04
2023-02-09T16:48:55.595Z,112.52
2023-02-09T16:49:55.594Z,113.08
2023-02-09T16:50:55.597Z,113.33
2023-02-09T16:51:55.598Z,114.96
2023-02-09T16:52:55.599Z,115.17
2023-02-09T16:53:55.610Z,113.79
2023-02-09T16:54:55.622Z,112.94
2023-02-09T16:55:55.607Z,117.35
2023-02-09T16:56:55.618Z,118.19
2023-02-09T16:57:55.618Z,118.87
2023-02-09T16:58:55.629Z,115.88
2023-02-09T16:59:55.622Z,113.22
2023-02-09T17:00:55.680Z,116.30
2023-02-09T17:01:55.634Z,115.29
2023-02-09T17:02:55.623Z,121.49
2023-02-09T17:03:55.630Z,118.03
2023-02-09T17:04:55.625Z,116.95
2023-02-09T17:05:55.640Z,119.91
2023-02-09T17:19:55.766Z,115.74
2023-02-09T17:20:55.699Z,116.65
2023-02-09T17:21:55.696Z,116.77
2023-02-09T17:22:55.720Z,117.27
2023-02-09T17:23:55.716Z,118.87
2023-02-09T17:24:55.752Z,117.16
2023-02-09T17:25:55.740Z,115.64
2023-02-09T17:26:55.751Z,117.23
2023-02-09T17:27:55.825Z,119.98
2023-02-09T17:28:55.748Z,115.07
2023-02-09T17:29:55.753Z,120.10
2023-02-09T17:30:55.786Z,115.93
2023-02-09T17:31:55.789Z,116.70
2023-02-09T17:32:56.097Z,117.92
2023-02-09T17:33:56.092Z,115.85
2023-02-09T17:34:55.777Z,115.78
2023-02-09T17:36:24.276Z,113.66
2023-02-09T17:37:55.788Z,114.16
2023-02-09T17:38:55.792Z,114.81
2023-02-09T17:39:55.834Z,116.98
2023-02-09T17:40:55.809Z,118.79
2023-02-09T17:41:55.799Z,113.77
2023-02-09T17:42:55.824Z,116.43
2023-02-09T17:43:55.861Z,119.43
2023-02-09T17:44:57.434Z,117.69
2023-02-09T17:45:55.838Z,119.21
2023-02-09T17:46:55.819Z,116.74
2023-02-09T17:47:55.823Z,117.16
2023-02-09T17:48:55.838Z,120.55
2023-02-09T17:49:55.817Z,116.94
2023-02-09T17:50:57.863Z,119.08
2023-02-09T17:51:55.836Z,119.07
2023-02-09T17:52:55.869Z,117.36
2023-02-09T17:53:56.112Z,117.61
2023-02-09T17:54:55.931Z,118.61
2023-02-09T17:55:55.955Z,117.12
2023-02-09T17:56:56.001Z,118.96
2023-02-09T17:57:56.012Z,116.74
2023-02-09T17:58:56.051Z,117.10
2023-02-09T17:59:56.235Z,119.28
2023-02-09T18:00:56.217Z,119.36
2023-02-09T18:01:56.143Z,118.09
2023-02-09T18:02:56.258Z,117.15
2023-02-09T18:03:56.605Z,115.69
2023-02-09T18:04:56.247Z,117.33
2023-02-09T18:05:56.283Z,119.36
2023-02-09T18:06:57.840Z,118.30
2023-02-09T18:07:56.343Z,118.65
2023-02-09T18:08:56.379Z,116.29
2023-02-09T18:09:56.417Z,115.88
2023-02-09T18:10:56.454Z,118.50
2023-02-09T18:11:56.489Z,118.77
2023-02-09T18:12:57.426Z,115.87
2023-02-09T18:13:56.561Z,119.53
2023-02-09T18:14:56.580Z,118.01
2023-02-09T18:15:56.636Z,116.40
2023-02-09T18:16:57.686Z,119.19
2023-02-09T18:17:56.694Z,119.46
2023-02-09T18:18:56.729Z,116.79
2023-02-09T18:19:56.753Z,119.92
2023-02-09T18:20:56.803Z,118.22
2023-02-09T18:21:56.873Z,117.65
2023-02-09T18:22:56.870Z,116.52
2023-02-09T18:23:56.985Z,118.03
2023-02-09T18:24:56.928Z,119.25
2023-02-09T18:25:57.065Z,116.63
2023-02-09T18:26:56.997Z,118.59
2023-02-09T18:27:57.059Z,119.48
2023-02-09T18:28:57.143Z,118.83
2023-02-09T18:29:57.100Z,118.71
2023-02-09T18:30:57.286Z,119.70
2023-02-09T18:31:57.266Z,121.92
2023-02-09T18:32:57.214Z,117.60
2023-02-09T18:33:57.277Z,117.69
2023-02-09T18:34:57.297Z,118.39
2023-02-09T18:35:57.343Z,115.94
2023-02-09T18:36:57.393Z,115.23
2023-02-09T18:37:57.413Z,120.96
2023-02-09T18:38:57.452Z,120.79
2023-02-09T18:39:57.492Z,119.37
2023-02-09T18:40:57.514Z,119.23
2023-02-09T18:41:57.561Z,116.56
2023-02-09T18:42:57.596Z,119.61
2023-02-09T18:43:57.640Z,118.56
2023-02-09T18:44:57.689Z,118.58
2023-02-09T18:45:57.724Z,118.50
2023-02-09T18:46:57.772Z,119.59
2023-02-09T18:47:57.789Z,118.64
2023-02-09T18:48:57.884Z,116.70
2023-02-09T18:49:57.873Z,117.16
2023-02-09T18:50:57.884Z,116.03
2023-02-09T18:51:57.921Z,118.40
2023-02-09T18:52:57.981Z,116.29
2023-02-09T18:53:58.009Z,119.59
2023-02-09T18:54:58.057Z,117.66
2023-02-09T18:55:58.134Z,117.10
2023-02-09T18:56:58.137Z,117.02
2023-02-09T18:57:58.168Z,118.47
2023-02-09T18:58:58.205Z,116.55
2023-02-09T18:59:58.246Z,116.27
2023-02-09T19:00:58.283Z,120.60
2023-02-09T19:01:58.338Z,119.38
2023-02-09T19:02:58.442Z,120.80
2023-02-09T19:03:58.394Z,118.60
2023-02-09T19:04:58.431Z,114.48
2023-02-09T19:05:58.469Z,120.54
2023-02-09T19:06:58.513Z,118.33
2023-02-09T19:07:58.552Z,119.70
2023-02-09T19:08:58.593Z,116.79
2023-02-09T19:09:58.645Z,117.25
2023-02-09T19:10:58.679Z,120.09
2023-02-09T19:11:58.799Z,119.39
2023-02-09T19:12:58.744Z,117.04
2023-02-09T19:13:58.792Z,118.06
2023-02-09T19:14:58.917Z,121.08
2023-02-09T19:15:58.889Z,117.18
2023-02-09T19:16:58.908Z,121.25
2023-02-09T19:17:58.956Z,120.87
2023-02-09T19:18:58.992Z,116.62
2023-02-09T19:19:59.026Z,119.76
2023-02-09T19:20:59.050Z,114.90
2023-02-09T19:21:59.092Z,118.97
2023-02-09T19:22:59.138Z,119.22
2023-02-09T19:23:59.161Z,119.75
2023-02-09T19:24:59.216Z,118.04
2023-02-09T19:25:59.280Z,115.64
2023-02-09T19:26:59.296Z,121.93
2023-02-09T19:27:59.394Z,119.88
2023-02-09T19:28:59.393Z,116.24
2023-02-09T21:20:05.663Z,109.97
2023-02-09T21:22:05.176Z,108.77
2023-02-09T21:24:05.192Z,109.92
2023-02-09T21:25:05.238Z,110.55
2023-02-09T21:26:06.186Z,109.37
2023-02-09T21:27:05.348Z,110.86
2023-02-09T21:28:05.517Z,110.19
2023-02-09T21:29:05.467Z,107.12
2023-02-09T21:30:05.534Z,107.39
2023-02-09T21:31:05.613Z,108.44
2023-02-09T21:32:05.646Z,109.41
2023-02-09T21:33:05.730Z,110.50
2023-02-09T21:34:05.775Z,107.90
2023-02-09T21:35:05.836Z,106.03
2023-02-09T21:36:05.900Z,106.95
2023-02-09T21:37:05.962Z,104.53
2023-02-09T21:38:06.023Z,108.11
2023-02-09T21:39:06.095Z,108.74
2023-02-09T21:40:06.220Z,101.58
2023-02-09T21:41:06.218Z,107.28
2023-02-09T21:42:06.270Z,104.38
2023-02-09T21:43:06.348Z,106.93
2023-02-09T21:44:06.389Z,104.72
2023-02-09T21:46:06.529Z,105.51
2023-02-09T21:47:06.587Z,101.12
2023-02-09T21:48:06.665Z,102.96
2023-02-09T21:49:06.713Z,106.41
2023-02-09T21:51:06.914Z,101.94
2023-02-09T21:52:06.909Z,104.75
2023-02-09T21:53:06.971Z,107.65
2023-02-09T21:54:07.045Z,105.65
2023-02-09T23:50:15.242Z,83.73
2023-02-09T23:51:15.308Z,82.98
2023-02-09T23:52:15.397Z,81.88
2023-02-09T23:53:15.478Z,80.23
2023-02-09T23:54:15.562Z,84.23
2023-02-09T23:55:15.628Z,87.44
2023-02-09T23:56:15.721Z,81.54
2023-02-09T23:57:15.785Z,83.37
2023-02-09T23:58:15.911Z,82.74
2023-02-09T23:59:15.942Z,84.83
